sensor_id;sensor_type;location;lat;lon;timestamp;temperature;humidity
76567;DHT22;65428;53.194;6.132;2023-11-19T00:01:23;12.00;99.90
76567;DHT22;65428;53.194;6.132;2023-11-19T00:03:48;12.00;99.90
76567;DHT22;65428;53.194;6.132;2023-11-19T00:06:14;12.00;99.90
76567;DHT22;65428;53.194;6.132;2023-11-19T00:08:42;12.00;99.90
76567;DHT22;65428;53.194;6.132;2023-11-19T00:11:09;12.00;99.90
76567;DHT22;65428;53.194;6.132;2023-11-19T00:13:35;12.20;99.90
76567;DHT22;65428;53.194;6.132;2023-11-19T00:16:00;12.10;99.90
76567;DHT22;65428;53.194;6.132;2023-11-19T00:18:26;12.10;99.90
76567;DHT22;65428;53.194;6.132;2023-11-19T00:20:51;12.10;99.90
76567;DHT22;65428;53.194;6.132;2023-11-19T00:23:17;12.10;99.90
76567;DHT22;65428;53.194;6.132;2023-11-19T00:25:42;12.10;99.90
76567;DHT22;65428;53.194;6.132;2023-11-19T00:28:08;12.10;99.90
76567;DHT22;65428;53.194;6.132;2023-11-19T00:30:34;12.10;99.90
76567;DHT22;65428;53.194;6.132;2023-11-19T00:32:59;12.10;99.90
76567;DHT22;65428;53.194;6.132;2023-11-19T00:35:25;12.10;99.90
76567;DHT22;65428;53.194;6.132;2023-11-19T00:37:50;12.10;99.90
76567;DHT22;65428;53.194;6.132;2023-11-19T00:40:16;12.20;99.90
76567;DHT22;65428;53.194;6.132;2023-11-19T00:42:43;12.50;99.90
76567;DHT22;65428;53.194;6.132;2023-11-19T00:45:09;12.20;99.90
76567;DHT22;65428;53.194;6.132;2023-11-19T00:47:35;12.20;99.90
76567;DHT22;65428;53.194;6.132;2023-11-19T00:50:04;12.20;99.90
76567;DHT22;65428;53.194;6.132;2023-11-19T00:52:30;12.20;99.90
76567;DHT22;65428;53.194;6.132;2023-11-19T00:54:55;12.20;99.90
76567;DHT22;65428;53.194;6.132;2023-11-19T00:57:22;12.20;99.90
76567;DHT22;65428;53.194;6.132;2023-11-19T00:59:49;12.20;99.90
76567;DHT22;65428;53.194;6.132;2023-11-19T01:02:14;12.20;99.90
76567;DHT22;65428;53.194;6.132;2023-11-19T01:04:40;12.20;99.90
76567;DHT22;65428;53.194;6.132;2023-11-19T01:07:06;12.30;99.90
76567;DHT22;65428;53.194;6.132;2023-11-19T01:09:32;12.20;99.90
76567;DHT22;65428;53.194;6.132;2023-11-19T01:12:00;12.20;99.90
76567;DHT22;65428;53.194;6.132;2023-11-19T01:14:27;12.20;99.90
76567;DHT22;65428;53.194;6.132;2023-11-19T01:16:52;12.10;99.90
76567;DHT22;65428;53.194;6.132;2023-11-19T01:19:20;12.40;99.90
76567;DHT22;65428;53.194;6.132;2023-11-19T01:21:47;12.20;99.90
76567;DHT22;65428;53.194;6.132;2023-11-19T01:24:12;12.20;99.90
76567;DHT22;65428;53.194;6.132;2023-11-19T01:26:39;12.60;99.90
76567;DHT22;65428;53.194;6.132;2023-11-19T01:29:11;12.20;99.90
76567;DHT22;65428;53.194;6.132;2023-11-19T01:31:42;12.20;99.90
76567;DHT22;65428;53.194;6.132;2023-11-19T01:34:08;12.30;99.90
76567;DHT22;65428;53.194;6.132;2023-11-19T01:36:34;12.20;99.90
76567;DHT22;65428;53.194;6.132;2023-11-19T01:38:59;12.20;99.90
76567;DHT22;65428;53.194;6.132;2023-11-19T01:41:25;12.20;99.90
76567;DHT22;65428;53.194;6.132;2023-11-19T01:43:51;12.20;99.90
76567;DHT22;65428;53.194;6.132;2023-11-19T01:46:16;12.10;99.90
76567;DHT22;65428;53.194;6.132;2023-11-19T01:48:46;12.10;99.90
76567;DHT22;65428;53.194;6.132;2023-11-19T01:51:16;12.10;99.90
76567;DHT22;65428;53.194;6.132;2023-11-19T01:53:43;12.00;99.90
76567;DHT22;65428;53.194;6.132;2023-11-19T01:56:10;11.90;99.90
76567;DHT22;65428;53.194;6.132;2023-11-19T01:58:37;11.90;99.90
76567;DHT22;65428;53.194;6.132;2023-11-19T02:01:07;11.90;99.90
76567;DHT22;65428;53.194;6.132;2023-11-19T02:03:34;11.90;99.90
76567;DHT22;65428;53.194;6.132;2023-11-19T02:06:00;11.90;99.90
76567;DHT22;65428;53.194;6.132;2023-11-19T02:08:26;11.90;99.90
76567;DHT22;65428;53.194;6.132;2023-11-19T02:10:52;11.90;99.90
76567;DHT22;65428;53.194;6.132;2023-11-19T02:13:18;11.80;99.90
76567;DHT22;65428;53.194;6.132;2023-11-19T02:15:44;11.80;99.90
76567;DHT22;65428;53.194;6.132;2023-11-19T02:18:28;11.70;99.90
76567;DHT22;65428;53.194;6.132;2023-11-19T02:20:58;11.80;99.90
76567;DHT22;65428;53.194;6.132;2023-11-19T02:23:26;11.80;99.90
76567;DHT22;65428;53.194;6.132;2023-11-19T02:28:48;11.80;99.90
76567;DHT22;65428;53.194;6.132;2023-11-19T02:31:13;11.80;99.90
76567;DHT22;65428;53.194;6.132;2023-11-19T02:33:40;11.80;99.90
76567;DHT22;65428;53.194;6.132;2023-11-19T02:36:06;11.80;99.90
76567;DHT22;65428;53.194;6.132;2023-11-19T02:38:36;11.80;99.90
76567;DHT22;65428;53.194;6.132;2023-11-19T02:41:06;11.80;99.90
76567;DHT22;65428;53.194;6.132;2023-11-19T02:43:32;12.20;99.90
76567;DHT22;65428;53.194;6.132;2023-11-19T02:46:02;11.90;99.90
76567;DHT22;65428;53.194;6.132;2023-11-19T02:48:32;11.80;99.90
76567;DHT22;65428;53.194;6.132;2023-11-19T02:50:58;11.90;99.90
76567;DHT22;65428;53.194;6.132;2023-11-19T02:53:24;11.90;99.90
76567;DHT22;65428;53.194;6.132;2023-11-19T02:55:53;11.80;99.90
76567;DHT22;65428;53.194;6.132;2023-11-19T02:58:18;12.40;99.90
76567;DHT22;65428;53.194;6.132;2023-11-19T03:00:49;11.70;99.90
76567;DHT22;65428;53.194;6.132;2023-11-19T03:03:26;11.90;99.90
76567;DHT22;65428;53.194;6.132;2023-11-19T03:06:06;11.70;99.90
76567;DHT22;65428;53.194;6.132;2023-11-19T03:08:34;11.70;99.90
76567;DHT22;65428;53.194;6.132;2023-11-19T03:11:00;12.20;99.90
76567;DHT22;65428;53.194;6.132;2023-11-19T03:13:26;11.70;99.90
76567;DHT22;65428;53.194;6.132;2023-11-19T03:15:52;12.00;99.90
76567;DHT22;65428;53.194;6.132;2023-11-19T03:18:20;11.80;99.90
76567;DHT22;65428;53.194;6.132;2023-11-19T03:20:49;11.70;99.90
76567;DHT22;65428;53.194;6.132;2023-11-19T03:23:15;11.80;99.90
76567;DHT22;65428;53.194;6.132;2023-11-19T03:25:41;11.80;99.90
76567;DHT22;65428;53.194;6.132;2023-11-19T03:28:06;12.00;99.90
76567;DHT22;65428;53.194;6.132;2023-11-19T03:30:32;11.80;99.90
76567;DHT22;65428;53.194;6.132;2023-11-19T03:32:58;12.00;99.90
76567;DHT22;65428;53.194;6.132;2023-11-19T03:35:25;11.90;99.90
76567;DHT22;65428;53.194;6.132;2023-11-19T03:37:51;11.90;99.90
76567;DHT22;65428;53.194;6.132;2023-11-19T03:40:17;12.20;99.90
76567;DHT22;65428;53.194;6.132;2023-11-19T03:42:45;12.10;99.90
76567;DHT22;65428;53.194;6.132;2023-11-19T03:45:10;12.00;99.90
76567;DHT22;65428;53.194;6.132;2023-11-19T03:47:36;12.10;99.90
76567;DHT22;65428;53.194;6.132;2023-11-19T03:50:02;12.00;99.90
76567;DHT22;65428;53.194;6.132;2023-11-19T03:52:29;12.00;99.90
76567;DHT22;65428;53.194;6.132;2023-11-19T03:54:55;12.00;99.90
76567;DHT22;65428;53.194;6.132;2023-11-19T03:57:21;12.00;99.90
76567;DHT22;65428;53.194;6.132;2023-11-19T03:59:47;11.90;99.90
76567;DHT22;65428;53.194;6.132;2023-11-19T04:02:13;11.90;99.90
76567;DHT22;65428;53.194;6.132;2023-11-19T04:04:39;12.10;99.90
76567;DHT22;65428;53.194;6.132;2023-11-19T04:07:05;12.10;99.90
76567;DHT22;65428;53.194;6.132;2023-11-19T04:09:31;11.80;99.90
76567;DHT22;65428;53.194;6.132;2023-11-19T04:12:00;11.80;99.90
76567;DHT22;65428;53.194;6.132;2023-11-19T04:14:26;11.80;99.90
76567;DHT22;65428;53.194;6.132;2023-11-19T04:16:52;11.90;99.90
76567;DHT22;65428;53.194;6.132;2023-11-19T04:19:19;12.00;99.90
76567;DHT22;65428;53.194;6.132;2023-11-19T04:21:44;11.80;99.90
76567;DHT22;65428;53.194;6.132;2023-11-19T04:24:10;11.60;99.90
76567;DHT22;65428;53.194;6.132;2023-11-19T04:26:44;11.60;99.90
76567;DHT22;65428;53.194;6.132;2023-11-19T04:29:15;11.60;99.90
76567;DHT22;65428;53.194;6.132;2023-11-19T04:31:43;11.60;99.90
76567;DHT22;65428;53.194;6.132;2023-11-19T04:34:10;11.60;99.90
76567;DHT22;65428;53.194;6.132;2023-11-19T04:36:36;11.60;99.90
76567;DHT22;65428;53.194;6.132;2023-11-19T04:39:03;11.70;99.90
76567;DHT22;65428;53.194;6.132;2023-11-19T04:41:49;11.60;99.90
76567;DHT22;65428;53.194;6.132;2023-11-19T04:44:16;11.90;99.90
76567;DHT22;65428;53.194;6.132;2023-11-19T04:46:42;11.60;99.90
76567;DHT22;65428;53.194;6.132;2023-11-19T04:49:14;11.70;99.90
76567;DHT22;65428;53.194;6.132;2023-11-19T04:51:44;12.00;99.90
76567;DHT22;65428;53.194;6.132;2023-11-19T04:54:12;11.80;99.90
76567;DHT22;65428;53.194;6.132;2023-11-19T04:56:38;11.90;99.90
76567;DHT22;65428;53.194;6.132;2023-11-19T04:59:06;11.70;99.90
76567;DHT22;65428;53.194;6.132;2023-11-19T05:01:35;12.40;99.90
76567;DHT22;65428;53.194;6.132;2023-11-19T05:04:12;11.70;99.90
76567;DHT22;65428;53.194;6.132;2023-11-19T05:06:38;11.80;99.90
76567;DHT22;65428;53.194;6.132;2023-11-19T05:09:03;11.50;99.90
76567;DHT22;65428;53.194;6.132;2023-11-19T05:11:36;11.60;99.90
76567;DHT22;65428;53.194;6.132;2023-11-19T05:14:05;11.90;99.90
76567;DHT22;65428;53.194;6.132;2023-11-19T05:16:31;11.90;99.90
76567;DHT22;65428;53.194;6.132;2023-11-19T05:18:57;11.80;99.90
76567;DHT22;65428;53.194;6.132;2023-11-19T05:21:23;11.80;99.90
76567;DHT22;65428;53.194;6.132;2023-11-19T05:23:49;11.90;99.90
76567;DHT22;65428;53.194;6.132;2023-11-19T05:26:21;11.50;99.90
76567;DHT22;65428;53.194;6.132;2023-11-19T05:28:47;12.20;99.90
76567;DHT22;65428;53.194;6.132;2023-11-19T05:31:14;12.50;99.90
76567;DHT22;65428;53.194;6.132;2023-11-19T05:33:39;11.80;99.90
76567;DHT22;65428;53.194;6.132;2023-11-19T05:36:06;11.80;99.90
76567;DHT22;65428;53.194;6.132;2023-11-19T05:38:34;11.70;99.90
76567;DHT22;65428;53.194;6.132;2023-11-19T05:40:59;11.90;99.90
76567;DHT22;65428;53.194;6.132;2023-11-19T05:43:25;11.80;99.90
76567;DHT22;65428;53.194;6.132;2023-11-19T05:45:50;11.90;99.90
76567;DHT22;65428;53.194;6.132;2023-11-19T05:48:16;11.90;99.90
76567;DHT22;65428;53.194;6.132;2023-11-19T05:50:42;11.70;99.90
76567;DHT22;65428;53.194;6.132;2023-11-19T05:53:08;11.60;99.90
76567;DHT22;65428;53.194;6.132;2023-11-19T05:55:39;11.50;99.90
76567;DHT22;65428;53.194;6.132;2023-11-19T05:58:12;11.60;99.90
76567;DHT22;65428;53.194;6.132;2023-11-19T06:00:38;11.60;99.90
76567;DHT22;65428;53.194;6.132;2023-11-19T06:03:07;11.80;99.90
76567;DHT22;65428;53.194;6.132;2023-11-19T06:05:32;11.70;99.90
76567;DHT22;65428;53.194;6.132;2023-11-19T06:07:58;11.90;99.90
76567;DHT22;65428;53.194;6.132;2023-11-19T06:10:24;11.60;99.90
76567;DHT22;65428;53.194;6.132;2023-11-19T06:13:00;12.00;99.90
76567;DHT22;65428;53.194;6.132;2023-11-19T06:15:26;11.60;99.90
76567;DHT22;65428;53.194;6.132;2023-11-19T06:17:58;11.60;99.90
76567;DHT22;65428;53.194;6.132;2023-11-19T06:20:29;11.60;99.90
76567;DHT22;65428;53.194;6.132;2023-11-19T06:22:56;11.50;99.90
76567;DHT22;65428;53.194;6.132;2023-11-19T06:25:22;11.50;99.90
76567;DHT22;65428;53.194;6.132;2023-11-19T06:27:50;11.50;99.90
76567;DHT22;65428;53.194;6.132;2023-11-19T06:30:15;11.40;99.90
76567;DHT22;65428;53.194;6.132;2023-11-19T06:32:42;11.50;99.90
76567;DHT22;65428;53.194;6.132;2023-11-19T06:35:08;11.60;99.90
76567;DHT22;65428;53.194;6.132;2023-11-19T06:37:35;11.50;99.90
76567;DHT22;65428;53.194;6.132;2023-11-19T06:40:08;11.50;99.90
76567;DHT22;65428;53.194;6.132;2023-11-19T06:42:37;11.50;99.90
76567;DHT22;65428;53.194;6.132;2023-11-19T06:45:04;11.50;99.90
76567;DHT22;65428;53.194;6.132;2023-11-19T06:47:31;11.50;99.90
76567;DHT22;65428;53.194;6.132;2023-11-19T06:49:58;11.50;99.90
76567;DHT22;65428;53.194;6.132;2023-11-19T06:52:24;11.60;99.90
76567;DHT22;65428;53.194;6.132;2023-11-19T06:54:50;11.50;99.90
76567;DHT22;65428;53.194;6.132;2023-11-19T06:57:16;11.50;99.90
76567;DHT22;65428;53.194;6.132;2023-11-19T06:59:42;11.30;99.90
76567;DHT22;65428;53.194;6.132;2023-11-19T07:02:08;11.60;99.90
76567;DHT22;65428;53.194;6.132;2023-11-19T07:04:34;12.00;99.90
76567;DHT22;65428;53.194;6.132;2023-11-19T07:07:00;11.40;99.90
76567;DHT22;65428;53.194;6.132;2023-11-19T07:09:26;11.40;99.90
76567;DHT22;65428;53.194;6.132;2023-11-19T07:11:52;11.40;99.90
76567;DHT22;65428;53.194;6.132;2023-11-19T07:14:19;11.40;99.90
76567;DHT22;65428;53.194;6.132;2023-11-19T07:16:45;11.40;99.90
76567;DHT22;65428;53.194;6.132;2023-11-19T07:19:15;11.70;99.90
76567;DHT22;65428;53.194;6.132;2023-11-19T07:21:42;11.60;99.90
76567;DHT22;65428;53.194;6.132;2023-11-19T07:24:09;11.40;99.90
76567;DHT22;65428;53.194;6.132;2023-11-19T07:26:35;11.50;99.90
76567;DHT22;65428;53.194;6.132;2023-11-19T07:29:02;11.50;99.90
76567;DHT22;65428;53.194;6.132;2023-11-19T07:31:28;11.70;99.90
76567;DHT22;65428;53.194;6.132;2023-11-19T07:33:54;11.30;99.90
76567;DHT22;65428;53.194;6.132;2023-11-19T07:36:20;11.60;99.90
76567;DHT22;65428;53.194;6.132;2023-11-19T07:38:46;11.30;99.90
76567;DHT22;65428;53.194;6.132;2023-11-19T07:41:13;11.30;99.90
76567;DHT22;65428;53.194;6.132;2023-11-19T07:43:44;11.40;99.90
76567;DHT22;65428;53.194;6.132;2023-11-19T07:46:12;11.30;99.90
76567;DHT22;65428;53.194;6.132;2023-11-19T07:48:41;11.00;99.90
76567;DHT22;65428;53.194;6.132;2023-11-19T07:51:08;11.50;99.90
76567;DHT22;65428;53.194;6.132;2023-11-19T07:53:33;11.50;99.90
76567;DHT22;65428;53.194;6.132;2023-11-19T07:56:00;11.70;99.90
76567;DHT22;65428;53.194;6.132;2023-11-19T07:58:26;11.70;99.90
76567;DHT22;65428;53.194;6.132;2023-11-19T08:00:51;11.60;99.90
76567;DHT22;65428;53.194;6.132;2023-11-19T08:03:18;12.00;99.90
76567;DHT22;65428;53.194;6.132;2023-11-19T08:05:45;11.70;99.90
76567;DHT22;65428;53.194;6.132;2023-11-19T08:08:11;11.80;99.90
76567;DHT22;65428;53.194;6.132;2023-11-19T08:10:37;11.50;99.90
76567;DHT22;65428;53.194;6.132;2023-11-19T08:13:03;11.30;99.90
76567;DHT22;65428;53.194;6.132;2023-11-19T08:15:29;11.60;99.90
76567;DHT22;65428;53.194;6.132;2023-11-19T08:17:55;11.60;99.90
76567;DHT22;65428;53.194;6.132;2023-11-19T08:20:21;11.80;99.90
76567;DHT22;65428;53.194;6.132;2023-11-19T08:22:47;11.60;99.90
76567;DHT22;65428;53.194;6.132;2023-11-19T08:25:12;11.50;99.90
76567;DHT22;65428;53.194;6.132;2023-11-19T08:27:38;11.50;99.90
76567;DHT22;65428;53.194;6.132;2023-11-19T08:30:05;11.70;99.90
76567;DHT22;65428;53.194;6.132;2023-11-19T08:32:31;11.60;99.90
76567;DHT22;65428;53.194;6.132;2023-11-19T08:34:57;11.60;99.90
76567;DHT22;65428;53.194;6.132;2023-11-19T08:37:23;11.60;99.90
76567;DHT22;65428;53.194;6.132;2023-11-19T08:39:51;11.80;99.90
76567;DHT22;65428;53.194;6.132;2023-11-19T08:42:17;11.70;99.90
76567;DHT22;65428;53.194;6.132;2023-11-19T08:44:43;11.80;99.90
76567;DHT22;65428;53.194;6.132;2023-11-19T08:47:10;12.00;99.90
76567;DHT22;65428;53.194;6.132;2023-11-19T08:49:36;11.80;99.90
76567;DHT22;65428;53.194;6.132;2023-11-19T08:52:02;11.70;99.90
76567;DHT22;65428;53.194;6.132;2023-11-19T08:54:28;11.40;99.90
76567;DHT22;65428;53.194;6.132;2023-11-19T08:56:53;11.70;99.90
76567;DHT22;65428;53.194;6.132;2023-11-19T08:59:19;12.00;99.90
76567;DHT22;65428;53.194;6.132;2023-11-19T09:01:45;11.90;99.90
76567;DHT22;65428;53.194;6.132;2023-11-19T09:04:11;11.70;99.90
76567;DHT22;65428;53.194;6.132;2023-11-19T09:06:37;11.90;99.90
76567;DHT22;65428;53.194;6.132;2023-11-19T09:09:02;12.10;99.90
76567;DHT22;65428;53.194;6.132;2023-11-19T09:11:31;11.80;99.90
76567;DHT22;65428;53.194;6.132;2023-11-19T09:13:57;11.80;99.90
76567;DHT22;65428;53.194;6.132;2023-11-19T09:16:23;11.90;99.90
76567;DHT22;65428;53.194;6.132;2023-11-19T09:18:49;12.00;99.90
76567;DHT22;65428;53.194;6.132;2023-11-19T09:21:15;12.10;99.90
76567;DHT22;65428;53.194;6.132;2023-11-19T09:23:41;12.70;99.90
76567;DHT22;65428;53.194;6.132;2023-11-19T09:26:08;12.50;99.90
76567;DHT22;65428;53.194;6.132;2023-11-19T09:28:34;12.50;99.90
76567;DHT22;65428;53.194;6.132;2023-11-19T09:31:00;12.50;99.90
76567;DHT22;65428;53.194;6.132;2023-11-19T09:33:25;12.60;99.90
76567;DHT22;65428;53.194;6.132;2023-11-19T09:35:52;12.80;99.90
76567;DHT22;65428;53.194;6.132;2023-11-19T09:38:17;12.90;99.90
76567;DHT22;65428;53.194;6.132;2023-11-19T09:40:43;12.60;99.90
76567;DHT22;65428;53.194;6.132;2023-11-19T09:43:09;12.90;99.90
76567;DHT22;65428;53.194;6.132;2023-11-19T09:45:48;12.90;99.90
76567;DHT22;65428;53.194;6.132;2023-11-19T09:48:19;12.80;99.90
76567;DHT22;65428;53.194;6.132;2023-11-19T09:50:47;12.90;99.90
76567;DHT22;65428;53.194;6.132;2023-11-19T09:53:14;12.80;99.90
76567;DHT22;65428;53.194;6.132;2023-11-19T09:55:40;13.00;99.90
76567;DHT22;65428;53.194;6.132;2023-11-19T09:58:07;12.80;99.90
76567;DHT22;65428;53.194;6.132;2023-11-19T10:00:34;12.80;99.90
76567;DHT22;65428;53.194;6.132;2023-11-19T10:03:00;12.80;99.90
76567;DHT22;65428;53.194;6.132;2023-11-19T10:05:26;13.00;99.90
76567;DHT22;65428;53.194;6.132;2023-11-19T10:07:55;13.10;99.90
76567;DHT22;65428;53.194;6.132;2023-11-19T10:10:21;12.80;99.90
76567;DHT22;65428;53.194;6.132;2023-11-19T10:12:47;12.80;99.90
76567;DHT22;65428;53.194;6.132;2023-11-19T10:15:24;13.40;99.90
76567;DHT22;65428;53.194;6.132;2023-11-19T10:17:55;12.80;99.90
76567;DHT22;65428;53.194;6.132;2023-11-19T10:20:20;12.70;99.90
76567;DHT22;65428;53.194;6.132;2023-11-19T10:22:46;12.70;99.90
76567;DHT22;65428;53.194;6.132;2023-11-19T10:25:28;12.80;99.90
76567;DHT22;65428;53.194;6.132;2023-11-19T10:27:56;12.80;99.90
76567;DHT22;65428;53.194;6.132;2023-11-19T10:30:29;12.80;99.90
76567;DHT22;65428;53.194;6.132;2023-11-19T10:35:50;13.00;99.90
76567;DHT22;65428;53.194;6.132;2023-11-19T10:38:20;13.30;99.90
76567;DHT22;65428;53.194;6.132;2023-11-19T10:40:47;13.20;99.90
76567;DHT22;65428;53.194;6.132;2023-11-19T10:43:13;13.10;99.90
76567;DHT22;65428;53.194;6.132;2023-11-19T10:45:40;13.20;99.90
76567;DHT22;65428;53.194;6.132;2023-11-19T10:48:06;13.10;99.90
76567;DHT22;65428;53.194;6.132;2023-11-19T10:50:34;13.20;99.90
76567;DHT22;65428;53.194;6.132;2023-11-19T10:53:03;13.10;99.90
76567;DHT22;65428;53.194;6.132;2023-11-19T10:55:33;13.10;99.90
76567;DHT22;65428;53.194;6.132;2023-11-19T10:58:02;13.10;99.90
76567;DHT22;65428;53.194;6.132;2023-11-19T11:00:30;13.10;99.90
76567;DHT22;65428;53.194;6.132;2023-11-19T11:03:10;13.00;99.90
76567;DHT22;65428;53.194;6.132;2023-11-19T11:05:38;13.10;99.90
76567;DHT22;65428;53.194;6.132;2023-11-19T11:08:06;13.20;99.90
76567;DHT22;65428;53.194;6.132;2023-11-19T11:10:35;13.20;99.90
76567;DHT22;65428;53.194;6.132;2023-11-19T11:13:05;13.00;99.90
76567;DHT22;65428;53.194;6.132;2023-11-19T11:15:32;13.20;99.90
76567;DHT22;65428;53.194;6.132;2023-11-19T11:18:02;13.00;99.90
76567;DHT22;65428;53.194;6.132;2023-11-19T11:20:32;13.00;99.90
76567;DHT22;65428;53.194;6.132;2023-11-19T11:29:11;13.00;99.90
76567;DHT22;65428;53.194;6.132;2023-11-19T11:38:07;12.90;99.90
76567;DHT22;65428;53.194;6.132;2023-11-19T11:40:33;12.60;99.90
76567;DHT22;65428;53.194;6.132;2023-11-19T11:42:58;12.50;99.90
76567;DHT22;65428;53.194;6.132;2023-11-19T11:45:54;12.20;99.90
76567;DHT22;65428;53.194;6.132;2023-11-19T11:48:19;12.00;99.90
76567;DHT22;65428;53.194;6.132;2023-11-19T11:50:50;12.00;99.90
76567;DHT22;65428;53.194;6.132;2023-11-19T11:53:21;12.00;99.90
76567;DHT22;65428;53.194;6.132;2023-11-19T11:58:29;12.00;99.90
76567;DHT22;65428;53.194;6.132;2023-11-19T12:01:01;12.10;99.90
76567;DHT22;65428;53.194;6.132;2023-11-19T12:03:28;12.40;99.90
76567;DHT22;65428;53.194;6.132;2023-11-19T12:05:54;12.60;99.90
76567;DHT22;65428;53.194;6.132;2023-11-19T12:08:25;12.70;99.90
76567;DHT22;65428;53.194;6.132;2023-11-19T12:10:53;12.90;99.90
76567;DHT22;65428;53.194;6.132;2023-11-19T12:13:20;12.40;99.90
76567;DHT22;65428;53.194;6.132;2023-11-19T12:18:24;12.60;99.90
76567;DHT22;65428;53.194;6.132;2023-11-19T12:20:54;12.60;99.90
76567;DHT22;65428;53.194;6.132;2023-11-19T12:23:21;12.60;99.90
76567;DHT22;65428;53.194;6.132;2023-11-19T12:25:47;12.60;99.90
76567;DHT22;65428;53.194;6.132;2023-11-19T12:28:14;12.50;99.90
76567;DHT22;65428;53.194;6.132;2023-11-19T12:30:40;12.70;99.90
76567;DHT22;65428;53.194;6.132;2023-11-19T12:33:12;12.60;99.90
76567;DHT22;65428;53.194;6.132;2023-11-19T12:35:42;12.40;99.90
76567;DHT22;65428;53.194;6.132;2023-11-19T12:38:24;12.40;99.90
76567;DHT22;65428;53.194;6.132;2023-11-19T12:41:06;12.40;99.90
76567;DHT22;65428;53.194;6.132;2023-11-19T12:43:32;12.40;99.90
76567;DHT22;65428;53.194;6.132;2023-11-19T12:46:00;12.50;99.90
76567;DHT22;65428;53.194;6.132;2023-11-19T12:48:25;12.50;99.90
76567;DHT22;65428;53.194;6.132;2023-11-19T12:53:26;12.40;99.90
76567;DHT22;65428;53.194;6.132;2023-11-19T12:55:53;12.60;99.90
76567;DHT22;65428;53.194;6.132;2023-11-19T12:58:32;12.40;99.90
76567;DHT22;65428;53.194;6.132;2023-11-19T13:01:06;12.80;99.90
76567;DHT22;65428;53.194;6.132;2023-11-19T13:03:34;12.70;99.90
76567;DHT22;65428;53.194;6.132;2023-11-19T13:06:10;12.80;99.90
76567;DHT22;65428;53.194;6.132;2023-11-19T13:08:41;12.80;99.90
76567;DHT22;65428;53.194;6.132;2023-11-19T13:11:07;12.80;99.90
76567;DHT22;65428;53.194;6.132;2023-11-19T13:13:53;12.80;99.90
76567;DHT22;65428;53.194;6.132;2023-11-19T13:16:19;12.60;99.90
76567;DHT22;65428;53.194;6.132;2023-11-19T13:18:45;13.00;99.90
76567;DHT22;65428;53.194;6.132;2023-11-19T13:21:10;13.20;99.90
76567;DHT22;65428;53.194;6.132;2023-11-19T13:23:36;12.80;99.90
76567;DHT22;65428;53.194;6.132;2023-11-19T13:26:02;12.80;99.90
76567;DHT22;65428;53.194;6.132;2023-11-19T13:28:29;12.80;99.90
76567;DHT22;65428;53.194;6.132;2023-11-19T13:30:55;13.00;99.90
76567;DHT22;65428;53.194;6.132;2023-11-19T13:33:20;12.80;99.90
76567;DHT22;65428;53.194;6.132;2023-11-19T13:35:46;13.00;99.90
76567;DHT22;65428;53.194;6.132;2023-11-19T13:38:12;13.00;99.90
76567;DHT22;65428;53.194;6.132;2023-11-19T13:40:38;12.50;99.90
76567;DHT22;65428;53.194;6.132;2023-11-19T13:43:04;12.70;99.90
76567;DHT22;65428;53.194;6.132;2023-11-19T13:45:30;12.70;99.90
76567;DHT22;65428;53.194;6.132;2023-11-19T13:47:58;12.60;99.90
76567;DHT22;65428;53.194;6.132;2023-11-19T13:50:24;12.60;99.90
76567;DHT22;65428;53.194;6.132;2023-11-19T13:52:50;12.50;99.90
76567;DHT22;65428;53.194;6.132;2023-11-19T13:55:15;12.70;99.90
76567;DHT22;65428;53.194;6.132;2023-11-19T13:57:42;12.40;99.90
76567;DHT22;65428;53.194;6.132;2023-11-19T14:00:10;12.50;99.90
76567;DHT22;65428;53.194;6.132;2023-11-19T14:02:40;12.40;99.90
76567;DHT22;65428;53.194;6.132;2023-11-19T14:05:07;12.30;99.90
76567;DHT22;65428;53.194;6.132;2023-11-19T14:07:33;12.20;99.90
76567;DHT22;65428;53.194;6.132;2023-11-19T14:09:59;12.20;99.90
76567;DHT22;65428;53.194;6.132;2023-11-19T14:12:31;12.50;99.90
76567;DHT22;65428;53.194;6.132;2023-11-19T14:15:00;12.30;99.90
76567;DHT22;65428;53.194;6.132;2023-11-19T14:17:33;12.20;99.90
76567;DHT22;65428;53.194;6.132;2023-11-19T14:20:02;12.40;99.90
76567;DHT22;65428;53.194;6.132;2023-11-19T14:22:40;12.30;99.90
76567;DHT22;65428;53.194;6.132;2023-11-19T14:25:07;12.80;99.90
76567;DHT22;65428;53.194;6.132;2023-11-19T14:27:39;12.30;99.90
76567;DHT22;65428;53.194;6.132;2023-11-19T14:30:06;12.30;99.90
76567;DHT22;65428;53.194;6.132;2023-11-19T14:32:32;12.30;99.90
76567;DHT22;65428;53.194;6.132;2023-11-19T14:34:57;12.30;99.90
76567;DHT22;65428;53.194;6.132;2023-11-19T14:37:23;12.40;99.90
76567;DHT22;65428;53.194;6.132;2023-11-19T14:39:49;12.10;99.90
76567;DHT22;65428;53.194;6.132;2023-11-19T14:42:16;12.50;99.90
76567;DHT22;65428;53.194;6.132;2023-11-19T14:44:42;12.10;99.90
76567;DHT22;65428;53.194;6.132;2023-11-19T14:47:11;12.40;99.90
76567;DHT22;65428;53.194;6.132;2023-11-19T14:49:37;12.30;99.90
76567;DHT22;65428;53.194;6.132;2023-11-19T14:52:04;12.00;99.90
76567;DHT22;65428;53.194;6.132;2023-11-19T14:54:30;12.40;99.90
76567;DHT22;65428;53.194;6.132;2023-11-19T14:56:56;12.60;99.90
76567;DHT22;65428;53.194;6.132;2023-11-19T14:59:25;12.50;99.90
76567;DHT22;65428;53.194;6.132;2023-11-19T15:01:51;12.40;99.90
76567;DHT22;65428;53.194;6.132;2023-11-19T15:04:17;12.40;99.90
76567;DHT22;65428;53.194;6.132;2023-11-19T15:06:45;12.20;99.90
76567;DHT22;65428;53.194;6.132;2023-11-19T15:09:11;12.20;99.90
76567;DHT22;65428;53.194;6.132;2023-11-19T15:11:44;12.30;99.90
76567;DHT22;65428;53.194;6.132;2023-11-19T15:14:15;12.40;99.90
76567;DHT22;65428;53.194;6.132;2023-11-19T15:16:42;12.30;99.90
76567;DHT22;65428;53.194;6.132;2023-11-19T15:19:08;12.30;99.90
76567;DHT22;65428;53.194;6.132;2023-11-19T15:21:34;12.20;99.90
76567;DHT22;65428;53.194;6.132;2023-11-19T15:24:01;12.40;99.90
76567;DHT22;65428;53.194;6.132;2023-11-19T15:26:30;12.30;99.90
76567;DHT22;65428;53.194;6.132;2023-11-19T15:28:56;12.20;99.90
76567;DHT22;65428;53.194;6.132;2023-11-19T15:31:23;12.40;99.90
76567;DHT22;65428;53.194;6.132;2023-11-19T15:33:49;12.50;99.90
76567;DHT22;65428;53.194;6.132;2023-11-19T15:36:14;12.60;99.90
76567;DHT22;65428;53.194;6.132;2023-11-19T15:38:40;12.60;99.90
76567;DHT22;65428;53.194;6.132;2023-11-19T15:41:06;12.10;99.90
76567;DHT22;65428;53.194;6.132;2023-11-19T15:43:33;11.90;99.90
76567;DHT22;65428;53.194;6.132;2023-11-19T15:46:07;11.90;99.90
76567;DHT22;65428;53.194;6.132;2023-11-19T15:48:33;11.80;99.90
76567;DHT22;65428;53.194;6.132;2023-11-19T15:53:57;11.70;99.90
76567;DHT22;65428;53.194;6.132;2023-11-19T15:56:25;11.90;99.90
76567;DHT22;65428;53.194;6.132;2023-11-19T15:59:20;11.80;99.90
76567;DHT22;65428;53.194;6.132;2023-11-19T16:01:47;11.70;99.90